Northeast Ithaca, NY

9:13 PM EDT on May 25, 2017 (GMT -0400)
Tompkins County | | Change Station

Elev 1099 ft 42.49 °N, 76.46 °W | Updated 8 minutes ago

Light Rain
Light Rain Mist
57 °F
Feels Like 57 °F
N
6
Wind Variable Wind from East

Today
High -- | Low -- °F
--% Chance of Precip.
Yesterday
High -- | Low -- °F
Precip. -- in
Pressure 29.54 in
Visibility 3.0 miles
Clouds Mostly Cloudy 1400 ft
Overcast 2000 ft
Dew Point 57 °F
Humidity 100%
Rainfall 0.27 in
Snow Depth Not available.
5:35 AM 8:30 PM
New Moon, 0% visible
SPECI KITH 260105Z 09005KT 3SM -RA BR BKN014 OVC020 14/14 A2954 RMK AO2 RAB02 P0000
Pressure 29.54 in
Visibility 3.0 miles
Clouds Mostly Cloudy 1400 ft
Overcast 2000 ft
Dew Point 57 °F
Humidity 100%
Rainfall 0.27 in
Snow Depth Not available.
5:35 AM 8:30 PM
New Moon, 0% visible
SPECI KITH 260105Z 09005KT 3SM -RA BR BKN014 OVC020 14/14 A2954 RMK AO2 RAB02 P0000

Get Severe Weather Alerts

Thanks for signing up!

Be on the lookout for a verification email in your inbox.

You'll start receiving the daily forecast at 6 AM.

×

10-Day Weather Forecast

Almanac

Astronomy

May. 25, 2017 Rise Set
Actual Time
Civil Twilight
Nautical Twilight
Astronomical Twilight
Moon
Length of Visible Light
Length of Day
Tomorrow will be .
, % of the Moon is Illuminated

Today's Extremes

State Highs State Lows

Community

WunderPhotos

Category 6

Welcome to Category 6. This is the collective home for Weather Underground's featured writeups by Dr. Jeff Masters (right), Bob Henson (left), Chris Burt, and other regular contributors.

Nearby

Air Quality

  Air Quality AQ Index Pollutant
Not available.

Snow Depth

Station Depth Elevation

Earthquake Activity

City Distance Mag. Time & Date
Minimum magnitude displayed is 2.5.

Coastal Water Temperatures

Place Temperature

Stations

Nearby Weather Stations

Station Location Temp. Windchill Dew Point Humidity Wind Precip. Elev Updated Type
                   

Watches & Warnings

There are currently no watches in effect.